Seago Piraeus — OXVD2 — position and weather

sailwx.info

Track history (hours):
 
Tides and Currents Weather Stations Pressure Air Temp Water Temp Dewpoint Dewpoint Depression Visibility Wind Speed Wind Dir Waves Ship Positions

Seago Piraeus

Last reported at 2016-Sep-25 11:21 UTC. Time now 2016-Sep-26 08:48 UTC.
Position N 37°36' E 023°56'.

Length 294 m; draft 11.7 m.

Type: Ship (hazmat cat A). MMSI: 219117000.

Date/timePositionNaut miles runAvg speedWind from/ knotsBaromVisibWave heightAir tempDewpointWater temp
2016-Sep-25 11:21N 37°36' E 023°56'911.9
2016-Sep-25 10:33N 37°39' E 023°45'1312.7
2016-Sep-25 09:34N 37°50' E 023°37'8 3.8
2016-Sep-25 07:33N 37°57' E 023°35'0 0.0
2016-Sep-25 04:33N 37°57' E 023°35'0 0.0
2016-Sep-25 00:33N 37°57' E 023°35'0 0.0
2016-Sep-24 22:33N 37°57' E 023°35'0 0.0
2016-Sep-24 21:33N 37°57' E 023°35'0 0.0
2016-Sep-24 19:33N 37°57' E 023°35'3 3.4
2016-Sep-24 18:33N 37°54' E 023°35'4 3.7
2016-Sep-24 17:33N 37°50' E 023°34'1 1.3
2016-Sep-24 16:33N 37°50' E 023°36'20 9.8
2016-Sep-24 14:33N 37°32' E 023°44'2512.6
2016-Sep-24 12:33N 37°07' E 023°37'44512.0
2016-Sep-22 23:26N 35°49' E 014°32'  
2016-Sep-19 14:24N 36°02' W 005°01'1417.1
2016-Sep-19 13:33N 35°60' W 005°18'14914.9
2016-Sep-19 03:33N 36°20' W 008°22'1616.0
2016-Sep-19 02:33N 36°25' W 008°41'3115.7
2016-Sep-19 00:33N 36°34' W 009°18'7815.5
2016-Sep-18 19:33N 37°47' W 009°51'6315.8
2016-Sep-18 15:33N 38°49' W 010°06'1615.7
2016-Sep-18 14:33N 39°05' W 010°07'6516.2
2016-Sep-18 10:33N 40°09' W 010°06'1616.2
2016-Sep-18 09:34N 40°26' W 010°07'62614.9
2016-Sep-16 15:30N 49°47' W 003°35'12015.1
2016-Sep-16 07:34N 50°25' W 000°37'6114.4
2016-Sep-16 03:20N 50°45' E 000°53'1215.2
2016-Sep-16 02:33N 50°53' E 001°07'2613.2
2016-Sep-16 00:33N 51°10' E 001°39'2211.0
2016-Sep-15 22:33N 51°23' E 002°08'1312.9
2016-Sep-15 21:33N 51°23' E 002°28'1110.8
2016-Sep-15 20:33N 51°24' E 002°46'2914.4
2016-Sep-15 18:34N 51°25' E 003°32'28 4.6
2016-Sep-15 12:33N 51°21' E 004°16'0 0.0
2016-Sep-15 11:34N 51°21' E 004°16'  
Track history (hours):
 
Tides and Currents Weather Stations Pressure Air Temp Water Temp Dewpoint Dewpoint Depression Visibility Wind Speed Wind Dir Waves Ship Positions

Seago Piraeus

Last reported at 2016-Sep-25 11:21 UTC. Time now 2016-Sep-26 08:48 UTC.
Position N 37°36' E 023°56'.

Length 294 m; draft 11.7 m.

Type: Ship (hazmat cat A). MMSI: 219117000.

Date/timePositionNaut miles runAvg speedWind from/ knotsBaromVisibWave heightAir tempDewpointWater temp
2016-Sep-25 11:21N 37°36' E 023°56'911.9
2016-Sep-25 10:33N 37°39' E 023°45'1312.7
2016-Sep-25 09:34N 37°50' E 023°37'8 3.8
2016-Sep-25 07:33N 37°57' E 023°35'0 0.0
2016-Sep-25 04:33N 37°57' E 023°35'0 0.0
2016-Sep-25 00:33N 37°57' E 023°35'0 0.0
2016-Sep-24 22:33N 37°57' E 023°35'0 0.0
2016-Sep-24 21:33N 37°57' E 023°35'0 0.0
2016-Sep-24 19:33N 37°57' E 023°35'3 3.4
2016-Sep-24 18:33N 37°54' E 023°35'4 3.7
2016-Sep-24 17:33N 37°50' E 023°34'1 1.3
2016-Sep-24 16:33N 37°50' E 023°36'20 9.8
2016-Sep-24 14:33N 37°32' E 023°44'2512.6
2016-Sep-24 12:33N 37°07' E 023°37'44512.0
2016-Sep-22 23:26N 35°49' E 014°32'  
2016-Sep-19 14:24N 36°02' W 005°01'1417.1
2016-Sep-19 13:33N 35°60' W 005°18'14914.9
2016-Sep-19 03:33N 36°20' W 008°22'1616.0
2016-Sep-19 02:33N 36°25' W 008°41'3115.7
2016-Sep-19 00:33N 36°34' W 009°18'7815.5
2016-Sep-18 19:33N 37°47' W 009°51'6315.8
2016-Sep-18 15:33N 38°49' W 010°06'1615.7
2016-Sep-18 14:33N 39°05' W 010°07'6516.2
2016-Sep-18 10:33N 40°09' W 010°06'1616.2
2016-Sep-18 09:34N 40°26' W 010°07'62614.9
2016-Sep-16 15:30N 49°47' W 003°35'12015.1
2016-Sep-16 07:34N 50°25' W 000°37'6114.4
2016-Sep-16 03:20N 50°45' E 000°53'1215.2
2016-Sep-16 02:33N 50°53' E 001°07'2613.2
2016-Sep-16 00:33N 51°10' E 001°39'2211.0
2016-Sep-15 22:33N 51°23' E 002°08'1312.9
2016-Sep-15 21:33N 51°23' E 002°28'1110.8
2016-Sep-15 20:33N 51°24' E 002°46'2914.4
2016-Sep-15 18:34N 51°25' E 003°32'28 4.6
2016-Sep-15 12:33N 51°21' E 004°16'0 0.0
2016-Sep-15 11:34N 51°21' E 004°16'  

Dump ship's entire track history